sensor_id;sensor_type;location;lat;lon;timestamp;temperature;humidity
15003;DHT22;7597;53.590;10.020;2022-07-29T00:01:47;13.10;1.00
15003;DHT22;7597;53.590;10.020;2022-07-29T00:04:13;13.10;1.00
15003;DHT22;7597;53.590;10.020;2022-07-29T00:06:40;13.00;1.00
15003;DHT22;7597;53.590;10.020;2022-07-29T00:09:06;13.00;1.00
15003;DHT22;7597;53.590;10.020;2022-07-29T00:11:33;13.00;1.00
15003;DHT22;7597;53.590;10.020;2022-07-29T00:14:00;12.90;1.00
15003;DHT22;7597;53.590;10.020;2022-07-29T00:16:26;12.90;1.00
15003;DHT22;7597;53.590;10.020;2022-07-29T00:18:53;12.80;1.00
15003;DHT22;7597;53.590;10.020;2022-07-29T00:21:20;12.80;1.00
15003;DHT22;7597;53.590;10.020;2022-07-29T00:23:46;12.80;1.00
15003;DHT22;7597;53.590;10.020;2022-07-29T00:26:13;12.70;1.00
15003;DHT22;7597;53.590;10.020;2022-07-29T00:28:40;12.60;1.00
15003;DHT22;7597;53.590;10.020;2022-07-29T00:31:06;12.60;1.00
15003;DHT22;7597;53.590;10.020;2022-07-29T00:33:33;12.60;1.00
15003;DHT22;7597;53.590;10.020;2022-07-29T00:36:00;12.10;1.00
15003;DHT22;7597;53.590;10.020;2022-07-29T00:38:26;12.40;1.00
15003;DHT22;7597;53.590;10.020;2022-07-29T00:40:53;12.30;1.00
15003;DHT22;7597;53.590;10.020;2022-07-29T00:43:20;12.30;1.00
15003;DHT22;7597;53.590;10.020;2022-07-29T00:45:46;12.20;1.00
15003;DHT22;7597;53.590;10.020;2022-07-29T00:48:13;11.80;1.00
15003;DHT22;7597;53.590;10.020;2022-07-29T00:50:39;12.20;1.00
15003;DHT22;7597;53.590;10.020;2022-07-29T00:53:06;12.10;1.00
15003;DHT22;7597;53.590;10.020;2022-07-29T00:55:33;12.10;1.00
15003;DHT22;7597;53.590;10.020;2022-07-29T00:57:59;12.10;1.00
15003;DHT22;7597;53.590;10.020;2022-07-29T01:00:27;12.10;1.00
15003;DHT22;7597;53.590;10.020;2022-07-29T01:02:54;12.00;1.00
15003;DHT22;7597;53.590;10.020;2022-07-29T01:05:21;12.00;1.00
15003;DHT22;7597;53.590;10.020;2022-07-29T01:07:48;11.90;1.00
15003;DHT22;7597;53.590;10.020;2022-07-29T01:10:14;11.90;1.00
15003;DHT22;7597;53.590;10.020;2022-07-29T01:12:40;11.90;1.00
15003;DHT22;7597;53.590;10.020;2022-07-29T01:15:07;11.90;1.00
15003;DHT22;7597;53.590;10.020;2022-07-29T01:17:41;11.80;1.00
15003;DHT22;7597;53.590;10.020;2022-07-29T01:20:13;11.80;1.00
15003;DHT22;7597;53.590;10.020;2022-07-29T01:25:44;11.90;1.00
15003;DHT22;7597;53.590;10.020;2022-07-29T01:28:17;12.00;1.00
15003;DHT22;7597;53.590;10.020;2022-07-29T01:30:39;12.00;1.00
15003;DHT22;7597;53.590;10.020;2022-07-29T01:33:07;12.00;1.00
15003;DHT22;7597;53.590;10.020;2022-07-29T01:35:36;12.10;1.00
15003;DHT22;7597;53.590;10.020;2022-07-29T01:38:05;12.20;1.00
15003;DHT22;7597;53.590;10.020;2022-07-29T01:40:40;12.30;1.00
15003;DHT22;7597;53.590;10.020;2022-07-29T01:43:09;12.40;1.00
15003;DHT22;7597;53.590;10.020;2022-07-29T01:45:37;12.40;1.00
15003;DHT22;7597;53.590;10.020;2022-07-29T01:48:03;12.50;1.00
15003;DHT22;7597;53.590;10.020;2022-07-29T01:50:31;12.60;1.00
15003;DHT22;7597;53.590;10.020;2022-07-29T01:52:58;12.60;1.00
15003;DHT22;7597;53.590;10.020;2022-07-29T01:55:25;12.60;1.00
15003;DHT22;7597;53.590;10.020;2022-07-29T01:57:51;12.80;1.00
15003;DHT22;7597;53.590;10.020;2022-07-29T02:00:18;12.80;1.00
15003;DHT22;7597;53.590;10.020;2022-07-29T02:02:45;12.80;1.00
15003;DHT22;7597;53.590;10.020;2022-07-29T02:05:12;12.90;1.00
15003;DHT22;7597;53.590;10.020;2022-07-29T02:07:37;12.90;1.00
15003;DHT22;7597;53.590;10.020;2022-07-29T02:10:05;12.90;1.00
15003;DHT22;7597;53.590;10.020;2022-07-29T02:12:32;12.90;1.00
15003;DHT22;7597;53.590;10.020;2022-07-29T02:14:59;13.00;1.00
15003;DHT22;7597;53.590;10.020;2022-07-29T02:17:27;13.00;1.00
15003;DHT22;7597;53.590;10.020;2022-07-29T02:19:52;13.00;1.00
15003;DHT22;7597;53.590;10.020;2022-07-29T02:22:18;13.00;1.00
15003;DHT22;7597;53.590;10.020;2022-07-29T02:24:45;13.00;1.00
15003;DHT22;7597;53.590;10.020;2022-07-29T02:27:12;13.00;1.00
15003;DHT22;7597;53.590;10.020;2022-07-29T02:29:38;13.10;1.00
15003;DHT22;7597;53.590;10.020;2022-07-29T02:32:05;13.00;1.00
15003;DHT22;7597;53.590;10.020;2022-07-29T02:34:32;13.00;1.00
15003;DHT22;7597;53.590;10.020;2022-07-29T02:36:59;13.00;1.00
15003;DHT22;7597;53.590;10.020;2022-07-29T02:39:26;13.00;1.00
15003;DHT22;7597;53.590;10.020;2022-07-29T02:41:57;13.10;1.00
15003;DHT22;7597;53.590;10.020;2022-07-29T02:44:24;13.00;1.00
15003;DHT22;7597;53.590;10.020;2022-07-29T02:46:50;13.00;1.00
15003;DHT22;7597;53.590;10.020;2022-07-29T02:52:02;13.00;1.00
15003;DHT22;7597;53.590;10.020;2022-07-29T02:54:36;12.90;1.00
15003;DHT22;7597;53.590;10.020;2022-07-29T02:57:02;13.00;1.00
15003;DHT22;7597;53.590;10.020;2022-07-29T02:59:27;13.00;1.00
15003;DHT22;7597;53.590;10.020;2022-07-29T03:01:55;13.00;1.00
15003;DHT22;7597;53.590;10.020;2022-07-29T03:04:22;12.90;1.00
15003;DHT22;7597;53.590;10.020;2022-07-29T03:06:48;12.90;1.00
15003;DHT22;7597;53.590;10.020;2022-07-29T03:09:15;12.90;1.00
15003;DHT22;7597;53.590;10.020;2022-07-29T03:11:41;12.90;1.00
15003;DHT22;7597;53.590;10.020;2022-07-29T03:14:08;12.90;1.00
15003;DHT22;7597;53.590;10.020;2022-07-29T03:16:35;13.00;1.00
15003;DHT22;7597;53.590;10.020;2022-07-29T03:19:02;12.90;1.00
15003;DHT22;7597;53.590;10.020;2022-07-29T03:21:28;12.90;1.00
15003;DHT22;7597;53.590;10.020;2022-07-29T03:23:55;12.90;1.00
15003;DHT22;7597;53.590;10.020;2022-07-29T03:26:21;12.80;1.00
15003;DHT22;7597;53.590;10.020;2022-07-29T03:28:49;12.90;1.00
15003;DHT22;7597;53.590;10.020;2022-07-29T03:31:16;12.80;1.00
15003;DHT22;7597;53.590;10.020;2022-07-29T03:33:42;12.90;1.00
15003;DHT22;7597;53.590;10.020;2022-07-29T03:36:09;12.90;1.00
15003;DHT22;7597;53.590;10.020;2022-07-29T03:38:36;13.00;1.00
15003;DHT22;7597;53.590;10.020;2022-07-29T03:41:06;13.00;1.00
15003;DHT22;7597;53.590;10.020;2022-07-29T03:43:32;13.00;1.00
15003;DHT22;7597;53.590;10.020;2022-07-29T03:45:58;13.00;1.00
15003;DHT22;7597;53.590;10.020;2022-07-29T03:48:25;13.00;1.00
15003;DHT22;7597;53.590;10.020;2022-07-29T03:50:52;13.00;1.00
15003;DHT22;7597;53.590;10.020;2022-07-29T03:53:18;13.00;1.00
15003;DHT22;7597;53.590;10.020;2022-07-29T03:55:47;13.10;1.00
15003;DHT22;7597;53.590;10.020;2022-07-29T03:58:13;13.00;1.00
15003;DHT22;7597;53.590;10.020;2022-07-29T04:00:39;13.10;1.00
15003;DHT22;7597;53.590;10.020;2022-07-29T04:03:06;13.10;1.00
15003;DHT22;7597;53.590;10.020;2022-07-29T04:05:33;13.10;1.00
15003;DHT22;7597;53.590;10.020;2022-07-29T04:08:00;13.10;1.00
15003;DHT22;7597;53.590;10.020;2022-07-29T04:10:26;13.10;1.00
15003;DHT22;7597;53.590;10.020;2022-07-29T04:12:53;13.20;1.00
15003;DHT22;7597;53.590;10.020;2022-07-29T04:15:20;13.20;1.00
15003;DHT22;7597;53.590;10.020;2022-07-29T04:17:46;13.20;1.00
15003;DHT22;7597;53.590;10.020;2022-07-29T04:20:13;13.20;1.00
15003;DHT22;7597;53.590;10.020;2022-07-29T04:22:40;13.30;1.00
15003;DHT22;7597;53.590;10.020;2022-07-29T04:25:08;13.30;1.00
15003;DHT22;7597;53.590;10.020;2022-07-29T04:27:34;13.30;1.00
15003;DHT22;7597;53.590;10.020;2022-07-29T04:30:01;13.40;1.00
15003;DHT22;7597;53.590;10.020;2022-07-29T04:32:28;13.40;1.00
15003;DHT22;7597;53.590;10.020;2022-07-29T04:34:54;13.50;1.00
15003;DHT22;7597;53.590;10.020;2022-07-29T04:37:21;13.60;1.00
15003;DHT22;7597;53.590;10.020;2022-07-29T04:39:48;13.60;1.00
15003;DHT22;7597;53.590;10.020;2022-07-29T04:42:14;13.60;1.00
15003;DHT22;7597;53.590;10.020;2022-07-29T04:44:42;13.70;1.00
15003;DHT22;7597;53.590;10.020;2022-07-29T04:47:08;13.70;1.00
15003;DHT22;7597;53.590;10.020;2022-07-29T04:49:37;13.80;1.00
15003;DHT22;7597;53.590;10.020;2022-07-29T04:52:02;13.90;1.00
15003;DHT22;7597;53.590;10.020;2022-07-29T04:54:28;14.00;1.00
15003;DHT22;7597;53.590;10.020;2022-07-29T04:56:55;14.00;1.00
15003;DHT22;7597;53.590;10.020;2022-07-29T04:59:22;14.10;1.00
15003;DHT22;7597;53.590;10.020;2022-07-29T05:01:48;14.20;1.00
15003;DHT22;7597;53.590;10.020;2022-07-29T05:04:15;14.30;1.00
15003;DHT22;7597;53.590;10.020;2022-07-29T05:06:42;14.40;1.00
15003;DHT22;7597;53.590;10.020;2022-07-29T05:09:09;14.50;1.00
15003;DHT22;7597;53.590;10.020;2022-07-29T05:11:35;14.50;1.00
15003;DHT22;7597;53.590;10.020;2022-07-29T05:14:03;14.70;1.00
15003;DHT22;7597;53.590;10.020;2022-07-29T05:16:29;14.70;1.00
15003;DHT22;7597;53.590;10.020;2022-07-29T05:18:56;14.80;1.00
15003;DHT22;7597;53.590;10.020;2022-07-29T05:21:23;14.90;1.00
15003;DHT22;7597;53.590;10.020;2022-07-29T05:23:49;15.00;1.00
15003;DHT22;7597;53.590;10.020;2022-07-29T05:26:16;15.20;1.00
15003;DHT22;7597;53.590;10.020;2022-07-29T05:28:43;15.30;1.00
15003;DHT22;7597;53.590;10.020;2022-07-29T05:31:09;15.40;1.00
15003;DHT22;7597;53.590;10.020;2022-07-29T05:33:36;15.60;1.00
15003;DHT22;7597;53.590;10.020;2022-07-29T05:36:04;15.80;1.00
15003;DHT22;7597;53.590;10.020;2022-07-29T05:38:30;16.00;1.00
15003;DHT22;7597;53.590;10.020;2022-07-29T05:40:58;16.10;1.00
15003;DHT22;7597;53.590;10.020;2022-07-29T05:43:24;16.20;1.00
15003;DHT22;7597;53.590;10.020;2022-07-29T05:45:50;16.40;1.00
15003;DHT22;7597;53.590;10.020;2022-07-29T05:48:17;16.70;1.00
15003;DHT22;7597;53.590;10.020;2022-07-29T05:50:44;16.80;1.00
15003;DHT22;7597;53.590;10.020;2022-07-29T05:53:11;16.90;1.00
15003;DHT22;7597;53.590;10.020;2022-07-29T05:55:38;17.00;1.00
15003;DHT22;7597;53.590;10.020;2022-07-29T05:58:04;17.10;1.00
15003;DHT22;7597;53.590;10.020;2022-07-29T06:00:31;17.20;1.00
15003;DHT22;7597;53.590;10.020;2022-07-29T06:02:58;17.40;1.00
15003;DHT22;7597;53.590;10.020;2022-07-29T06:05:25;17.70;1.00
15003;DHT22;7597;53.590;10.020;2022-07-29T06:07:51;18.20;1.00
15003;DHT22;7597;53.590;10.020;2022-07-29T06:10:19;18.90;1.00
15003;DHT22;7597;53.590;10.020;2022-07-29T06:12:46;19.40;1.00
15003;DHT22;7597;53.590;10.020;2022-07-29T06:15:12;19.80;1.00
15003;DHT22;7597;53.590;10.020;2022-07-29T06:17:39;20.10;1.00
15003;DHT22;7597;53.590;10.020;2022-07-29T06:20:06;20.10;1.00
15003;DHT22;7597;53.590;10.020;2022-07-29T06:22:33;20.50;1.00
15003;DHT22;7597;53.590;10.020;2022-07-29T06:25:00;20.70;1.00
15003;DHT22;7597;53.590;10.020;2022-07-29T06:27:26;20.70;1.00
15003;DHT22;7597;53.590;10.020;2022-07-29T06:29:53;20.20;1.00
15003;DHT22;7597;53.590;10.020;2022-07-29T06:32:20;20.30;1.00
15003;DHT22;7597;53.590;10.020;2022-07-29T06:34:47;20.80;1.00
15003;DHT22;7597;53.590;10.020;2022-07-29T06:37:14;21.10;1.00
15003;DHT22;7597;53.590;10.020;2022-07-29T06:39:40;21.20;1.00
15003;DHT22;7597;53.590;10.020;2022-07-29T06:42:07;21.30;1.00
15003;DHT22;7597;53.590;10.020;2022-07-29T06:44:34;21.40;1.00
15003;DHT22;7597;53.590;10.020;2022-07-29T06:47:01;21.40;1.00
15003;DHT22;7597;53.590;10.020;2022-07-29T06:49:28;21.30;1.00
15003;DHT22;7597;53.590;10.020;2022-07-29T06:51:55;21.60;1.00
15003;DHT22;7597;53.590;10.020;2022-07-29T06:54:21;22.00;1.00
15003;DHT22;7597;53.590;10.020;2022-07-29T06:56:48;22.30;1.00
15003;DHT22;7597;53.590;10.020;2022-07-29T06:59:17;22.00;1.00
15003;DHT22;7597;53.590;10.020;2022-07-29T07:01:44;22.00;1.00
15003;DHT22;7597;53.590;10.020;2022-07-29T07:04:11;22.10;1.00
15003;DHT22;7597;53.590;10.020;2022-07-29T07:06:38;21.30;1.00
15003;DHT22;7597;53.590;10.020;2022-07-29T07:09:05;21.30;1.00
15003;DHT22;7597;53.590;10.020;2022-07-29T07:11:32;21.30;1.00
15003;DHT22;7597;53.590;10.020;2022-07-29T07:13:58;21.60;1.00
15003;DHT22;7597;53.590;10.020;2022-07-29T07:16:25;22.00;1.00
15003;DHT22;7597;53.590;10.020;2022-07-29T07:18:54;22.20;1.00
15003;DHT22;7597;53.590;10.020;2022-07-29T07:21:22;22.50;1.00
15003;DHT22;7597;53.590;10.020;2022-07-29T07:23:49;22.50;1.00
15003;DHT22;7597;53.590;10.020;2022-07-29T07:26:16;22.60;1.00
15003;DHT22;7597;53.590;10.020;2022-07-29T07:28:43;22.60;1.00
15003;DHT22;7597;53.590;10.020;2022-07-29T07:31:10;22.40;1.00
15003;DHT22;7597;53.590;10.020;2022-07-29T07:33:37;22.40;1.00
15003;DHT22;7597;53.590;10.020;2022-07-29T07:36:04;22.40;1.00
15003;DHT22;7597;53.590;10.020;2022-07-29T07:38:31;22.00;1.00
15003;DHT22;7597;53.590;10.020;2022-07-29T07:40:58;22.00;1.00
15003;DHT22;7597;53.590;10.020;2022-07-29T07:43:25;21.70;1.00
15003;DHT22;7597;53.590;10.020;2022-07-29T07:45:52;21.80;1.00
15003;DHT22;7597;53.590;10.020;2022-07-29T07:48:19;22.00;1.00
15003;DHT22;7597;53.590;10.020;2022-07-29T07:50:46;22.10;1.00
15003;DHT22;7597;53.590;10.020;2022-07-29T07:53:13;22.10;1.00
15003;DHT22;7597;53.590;10.020;2022-07-29T07:55:41;21.90;1.00
15003;DHT22;7597;53.590;10.020;2022-07-29T07:58:07;22.20;1.00
15003;DHT22;7597;53.590;10.020;2022-07-29T08:00:34;22.30;1.00
15003;DHT22;7597;53.590;10.020;2022-07-29T08:03:00;22.70;1.00
15003;DHT22;7597;53.590;10.020;2022-07-29T08:05:28;23.10;1.00
15003;DHT22;7597;53.590;10.020;2022-07-29T08:07:55;23.40;1.00
15003;DHT22;7597;53.590;10.020;2022-07-29T08:10:22;24.00;1.00
15003;DHT22;7597;53.590;10.020;2022-07-29T08:12:56;24.30;1.00
15003;DHT22;7597;53.590;10.020;2022-07-29T08:15:22;24.90;1.00
15003;DHT22;7597;53.590;10.020;2022-07-29T08:17:49;25.50;1.00
15003;DHT22;7597;53.590;10.020;2022-07-29T08:20:16;25.90;1.00
15003;DHT22;7597;53.590;10.020;2022-07-29T08:22:43;26.50;1.00
15003;DHT22;7597;53.590;10.020;2022-07-29T08:25:10;27.00;1.00
15003;DHT22;7597;53.590;10.020;2022-07-29T08:27:36;27.50;1.00
15003;DHT22;7597;53.590;10.020;2022-07-29T08:30:05;28.30;1.00
15003;DHT22;7597;53.590;10.020;2022-07-29T08:32:32;29.10;1.00
15003;DHT22;7597;53.590;10.020;2022-07-29T08:34:58;30.00;1.00
15003;DHT22;7597;53.590;10.020;2022-07-29T08:37:26;31.60;1.00
15003;DHT22;7597;53.590;10.020;2022-07-29T08:39:53;31.50;1.00
15003;DHT22;7597;53.590;10.020;2022-07-29T08:42:19;32.50;1.00
15003;DHT22;7597;53.590;10.020;2022-07-29T08:44:46;32.60;1.00
15003;DHT22;7597;53.590;10.020;2022-07-29T08:47:14;33.90;1.00
15003;DHT22;7597;53.590;10.020;2022-07-29T08:49:40;33.80;1.00
15003;DHT22;7597;53.590;10.020;2022-07-29T08:52:07;34.20;1.00
15003;DHT22;7597;53.590;10.020;2022-07-29T08:54:33;34.50;1.00
15003;DHT22;7597;53.590;10.020;2022-07-29T08:57:00;34.10;1.00
15003;DHT22;7597;53.590;10.020;2022-07-29T08:59:28;33.70;1.00
15003;DHT22;7597;53.590;10.020;2022-07-29T09:01:56;33.90;1.00
15003;DHT22;7597;53.590;10.020;2022-07-29T09:04:23;33.90;1.00
15003;DHT22;7597;53.590;10.020;2022-07-29T09:06:51;33.80;1.00
15003;DHT22;7597;53.590;10.020;2022-07-29T09:09:16;34.00;1.00
15003;DHT22;7597;53.590;10.020;2022-07-29T09:11:43;34.80;1.00
15003;DHT22;7597;53.590;10.020;2022-07-29T09:14:11;35.40;1.00
15003;DHT22;7597;53.590;10.020;2022-07-29T09:16:51;36.10;1.00
15003;DHT22;7597;53.590;10.020;2022-07-29T09:19:21;36.80;1.00
15003;DHT22;7597;53.590;10.020;2022-07-29T09:21:46;36.60;1.00
15003;DHT22;7597;53.590;10.020;2022-07-29T09:24:19;36.80;1.00
15003;DHT22;7597;53.590;10.020;2022-07-29T09:26:46;35.30;1.00
15003;DHT22;7597;53.590;10.020;2022-07-29T09:29:14;35.30;1.00
15003;DHT22;7597;53.590;10.020;2022-07-29T09:31:42;35.30;1.00
15003;DHT22;7597;53.590;10.020;2022-07-29T09:34:07;34.00;1.00
15003;DHT22;7597;53.590;10.020;2022-07-29T09:36:51;32.30;1.00
15003;DHT22;7597;53.590;10.020;2022-07-29T09:41:50;30.90;1.00
15003;DHT22;7597;53.590;10.020;2022-07-29T09:44:16;30.30;1.00
15003;DHT22;7597;53.590;10.020;2022-07-29T09:46:53;29.80;1.00
15003;DHT22;7597;53.590;10.020;2022-07-29T09:49:18;29.10;1.00
15003;DHT22;7597;53.590;10.020;2022-07-29T09:51:46;28.70;1.00
15003;DHT22;7597;53.590;10.020;2022-07-29T09:54:22;28.50;1.00
15003;DHT22;7597;53.590;10.020;2022-07-29T09:56:48;28.80;1.00
15003;DHT22;7597;53.590;10.020;2022-07-29T09:59:15;29.00;1.00
15003;DHT22;7597;53.590;10.020;2022-07-29T10:01:42;28.70;1.00
15003;DHT22;7597;53.590;10.020;2022-07-29T10:04:08;28.80;1.00
15003;DHT22;7597;53.590;10.020;2022-07-29T10:06:35;29.00;1.00
15003;DHT22;7597;53.590;10.020;2022-07-29T10:09:08;29.40;1.00
15003;DHT22;7597;53.590;10.020;2022-07-29T10:11:35;29.50;1.00
15003;DHT22;7597;53.590;10.020;2022-07-29T10:14:03;29.50;1.00
15003;DHT22;7597;53.590;10.020;2022-07-29T10:16:29;30.00;1.00
15003;DHT22;7597;53.590;10.020;2022-07-29T10:18:56;30.00;1.00
15003;DHT22;7597;53.590;10.020;2022-07-29T10:21:23;29.90;1.00
15003;DHT22;7597;53.590;10.020;2022-07-29T10:23:50;29.80;1.00
15003;DHT22;7597;53.590;10.020;2022-07-29T10:26:16;29.30;1.00
15003;DHT22;7597;53.590;10.020;2022-07-29T10:28:43;29.20;1.00
15003;DHT22;7597;53.590;10.020;2022-07-29T10:31:13;28.50;1.00
15003;DHT22;7597;53.590;10.020;2022-07-29T10:33:48;27.90;1.00
15003;DHT22;7597;53.590;10.020;2022-07-29T10:36:24;27.50;1.00
15003;DHT22;7597;53.590;10.020;2022-07-29T10:39:05;27.30;1.00
15003;DHT22;7597;53.590;10.020;2022-07-29T10:41:39;27.50;1.00
15003;DHT22;7597;53.590;10.020;2022-07-29T10:44:05;27.50;1.00
15003;DHT22;7597;53.590;10.020;2022-07-29T10:46:35;27.50;1.00
15003;DHT22;7597;53.590;10.020;2022-07-29T10:49:04;27.00;1.00
15003;DHT22;7597;53.590;10.020;2022-07-29T10:52:11;26.40;1.00
15003;DHT22;7597;53.590;10.020;2022-07-29T10:54:38;26.20;1.00
15003;DHT22;7597;53.590;10.020;2022-07-29T10:57:15;26.40;1.00
15003;DHT22;7597;53.590;10.020;2022-07-29T10:59:42;26.40;1.00
15003;DHT22;7597;53.590;10.020;2022-07-29T11:05:03;26.30;1.00
15003;DHT22;7597;53.590;10.020;2022-07-29T11:07:29;26.50;1.00
15003;DHT22;7597;53.590;10.020;2022-07-29T11:12:51;27.30;1.00
15003;DHT22;7597;53.590;10.020;2022-07-29T11:15:18;27.50;1.00
15003;DHT22;7597;53.590;10.020;2022-07-29T11:18:05;28.30;1.00
15003;DHT22;7597;53.590;10.020;2022-07-29T11:20:43;28.30;1.00
15003;DHT22;7597;53.590;10.020;2022-07-29T11:23:17;28.80;1.00
15003;DHT22;7597;53.590;10.020;2022-07-29T11:25:43;29.10;1.00
15003;DHT22;7597;53.590;10.020;2022-07-29T11:28:13;29.80;1.00
15003;DHT22;7597;53.590;10.020;2022-07-29T11:30:49;30.30;1.00
15003;DHT22;7597;53.590;10.020;2022-07-29T11:33:27;32.60;1.00
15003;DHT22;7597;53.590;10.020;2022-07-29T11:36:14;33.70;1.00
15003;DHT22;7597;53.590;10.020;2022-07-29T11:38:40;33.90;1.00
15003;DHT22;7597;53.590;10.020;2022-07-29T11:41:20;33.70;1.00
15003;DHT22;7597;53.590;10.020;2022-07-29T11:43:51;34.00;1.00
15003;DHT22;7597;53.590;10.020;2022-07-29T11:48:57;33.00;1.00
15003;DHT22;7597;53.590;10.020;2022-07-29T11:51:23;33.00;1.00
15003;DHT22;7597;53.590;10.020;2022-07-29T11:53:50;32.30;1.00
15003;DHT22;7597;53.590;10.020;2022-07-29T11:56:17;31.20;1.00
15003;DHT22;7597;53.590;10.020;2022-07-29T11:58:44;30.70;1.00
15003;DHT22;7597;53.590;10.020;2022-07-29T12:01:13;30.60;1.00
15003;DHT22;7597;53.590;10.020;2022-07-29T12:03:40;30.80;1.00
15003;DHT22;7597;53.590;10.020;2022-07-29T12:06:12;30.70;1.00
15003;DHT22;7597;53.590;10.020;2022-07-29T12:08:39;30.90;1.00
15003;DHT22;7597;53.590;10.020;2022-07-29T12:11:14;31.70;1.00
15003;DHT22;7597;53.590;10.020;2022-07-29T12:13:38;31.90;1.00
15003;DHT22;7597;53.590;10.020;2022-07-29T12:15:59;32.70;1.00
15003;DHT22;7597;53.590;10.020;2022-07-29T12:18:25;33.20;1.00
15003;DHT22;7597;53.590;10.020;2022-07-29T12:20:58;33.50;1.00
15003;DHT22;7597;53.590;10.020;2022-07-29T12:23:24;33.50;1.00
15003;DHT22;7597;53.590;10.020;2022-07-29T12:25:51;32.30;1.00
15003;DHT22;7597;53.590;10.020;2022-07-29T12:28:18;32.80;1.00
15003;DHT22;7597;53.590;10.020;2022-07-29T12:30:45;33.10;1.00
15003;DHT22;7597;53.590;10.020;2022-07-29T12:33:27;32.90;1.00
15003;DHT22;7597;53.590;10.020;2022-07-29T12:35:54;31.90;1.00
15003;DHT22;7597;53.590;10.020;2022-07-29T12:38:20;31.70;1.00
15003;DHT22;7597;53.590;10.020;2022-07-29T12:40:47;32.30;1.00
15003;DHT22;7597;53.590;10.020;2022-07-29T12:43:16;32.30;1.00
15003;DHT22;7597;53.590;10.020;2022-07-29T12:45:45;32.60;1.00
15003;DHT22;7597;53.590;10.020;2022-07-29T12:48:10;32.60;1.00
15003;DHT22;7597;53.590;10.020;2022-07-29T12:50:51;32.90;1.00
15003;DHT22;7597;53.590;10.020;2022-07-29T12:53:12;32.80;1.00
15003;DHT22;7597;53.590;10.020;2022-07-29T12:55:43;33.40;1.00
15003;DHT22;7597;53.590;10.020;2022-07-29T12:58:09;33.40;1.00
15003;DHT22;7597;53.590;10.020;2022-07-29T13:00:35;32.20;1.00
15003;DHT22;7597;53.590;10.020;2022-07-29T13:03:03;31.70;1.00
15003;DHT22;7597;53.590;10.020;2022-07-29T13:05:39;31.60;1.00
15003;DHT22;7597;53.590;10.020;2022-07-29T13:08:14;31.40;1.00
15003;DHT22;7597;53.590;10.020;2022-07-29T13:10:40;31.50;1.00
15003;DHT22;7597;53.590;10.020;2022-07-29T13:13:09;31.70;1.00
15003;DHT22;7597;53.590;10.020;2022-07-29T13:15:35;32.00;1.00
15003;DHT22;7597;53.590;10.020;2022-07-29T13:18:02;31.30;1.00
15003;DHT22;7597;53.590;10.020;2022-07-29T13:20:30;31.50;1.00
15003;DHT22;7597;53.590;10.020;2022-07-29T13:22:57;31.50;1.00
15003;DHT22;7597;53.590;10.020;2022-07-29T13:25:30;31.70;1.00
15003;DHT22;7597;53.590;10.020;2022-07-29T13:27:58;32.10;1.00
15003;DHT22;7597;53.590;10.020;2022-07-29T13:30:24;32.40;1.00
15003;DHT22;7597;53.590;10.020;2022-07-29T13:32:51;32.50;1.00
15003;DHT22;7597;53.590;10.020;2022-07-29T13:35:19;32.70;1.00
15003;DHT22;7597;53.590;10.020;2022-07-29T13:37:47;32.50;1.00
15003;DHT22;7597;53.590;10.020;2022-07-29T13:40:15;32.90;1.00
15003;DHT22;7597;53.590;10.020;2022-07-29T13:42:42;32.80;1.00
15003;DHT22;7597;53.590;10.020;2022-07-29T13:45:09;32.70;1.00
15003;DHT22;7597;53.590;10.020;2022-07-29T13:47:36;32.70;1.00
15003;DHT22;7597;53.590;10.020;2022-07-29T13:50:03;32.80;1.00
15003;DHT22;7597;53.590;10.020;2022-07-29T13:52:29;32.70;1.00
15003;DHT22;7597;53.590;10.020;2022-07-29T13:54:56;32.40;1.00
15003;DHT22;7597;53.590;10.020;2022-07-29T13:57:23;32.30;1.00
15003;DHT22;7597;53.590;10.020;2022-07-29T13:59:49;32.00;1.00
15003;DHT22;7597;53.590;10.020;2022-07-29T14:02:16;31.50;1.00
15003;DHT22;7597;53.590;10.020;2022-07-29T14:04:43;31.20;1.00
15003;DHT22;7597;53.590;10.020;2022-07-29T14:07:09;30.90;1.00
15003;DHT22;7597;53.590;10.020;2022-07-29T14:09:38;30.10;1.00
15003;DHT22;7597;53.590;10.020;2022-07-29T14:12:03;30.00;1.00
15003;DHT22;7597;53.590;10.020;2022-07-29T14:14:30;29.70;1.00
15003;DHT22;7597;53.590;10.020;2022-07-29T14:16:58;29.40;1.00
15003;DHT22;7597;53.590;10.020;2022-07-29T14:19:24;29.50;1.00
15003;DHT22;7597;53.590;10.020;2022-07-29T14:21:51;29.70;1.00
15003;DHT22;7597;53.590;10.020;2022-07-29T14:24:18;29.70;1.00
15003;DHT22;7597;53.590;10.020;2022-07-29T14:26:45;29.50;1.00
15003;DHT22;7597;53.590;10.020;2022-07-29T14:29:11;29.50;1.00
15003;DHT22;7597;53.590;10.020;2022-07-29T14:31:38;29.20;1.00
15003;DHT22;7597;53.590;10.020;2022-07-29T14:34:04;28.90;1.00
15003;DHT22;7597;53.590;10.020;2022-07-29T14:36:31;28.60;1.00
15003;DHT22;7597;53.590;10.020;2022-07-29T14:38:58;28.50;1.00
15003;DHT22;7597;53.590;10.020;2022-07-29T14:41:25;28.00;1.00
15003;DHT22;7597;53.590;10.020;2022-07-29T14:43:51;27.90;1.00
15003;DHT22;7597;53.590;10.020;2022-07-29T14:46:19;27.60;1.00
15003;DHT22;7597;53.590;10.020;2022-07-29T14:48:47;27.60;1.00
15003;DHT22;7597;53.590;10.020;2022-07-29T14:51:14;27.50;1.00
15003;DHT22;7597;53.590;10.020;2022-07-29T14:53:40;27.40;1.00
15003;DHT22;7597;53.590;10.020;2022-07-29T14:56:07;27.60;1.00
15003;DHT22;7597;53.590;10.020;2022-07-29T14:58:35;27.80;1.00
15003;DHT22;7597;53.590;10.020;2022-07-29T15:01:01;28.20;1.00
15003;DHT22;7597;53.590;10.020;2022-07-29T15:03:28;28.50;1.00
15003;DHT22;7597;53.590;10.020;2022-07-29T15:05:55;29.00;1.00
15003;DHT22;7597;53.590;10.020;2022-07-29T15:08:21;29.50;1.00
15003;DHT22;7597;53.590;10.020;2022-07-29T15:10:48;29.90;1.00
15003;DHT22;7597;53.590;10.020;2022-07-29T15:13:15;30.30;1.00
15003;DHT22;7597;53.590;10.020;2022-07-29T15:15:41;30.60;1.00
15003;DHT22;7597;53.590;10.020;2022-07-29T15:18:08;31.00;1.00
15003;DHT22;7597;53.590;10.020;2022-07-29T15:20:35;31.00;1.00
15003;DHT22;7597;53.590;10.020;2022-07-29T15:23:01;30.70;1.00
15003;DHT22;7597;53.590;10.020;2022-07-29T15:25:28;30.80;1.00
15003;DHT22;7597;53.590;10.020;2022-07-29T15:27:55;30.70;1.00
15003;DHT22;7597;53.590;10.020;2022-07-29T15:30:22;29.80;1.00
15003;DHT22;7597;53.590;10.020;2022-07-29T15:32:49;29.80;1.00
15003;DHT22;7597;53.590;10.020;2022-07-29T15:35:15;29.30;1.00
15003;DHT22;7597;53.590;10.020;2022-07-29T15:37:42;28.90;1.00
15003;DHT22;7597;53.590;10.020;2022-07-29T15:40:09;28.20;1.00
15003;DHT22;7597;53.590;10.020;2022-07-29T15:42:36;28.10;1.00
15003;DHT22;7597;53.590;10.020;2022-07-29T15:45:03;28.10;1.00
15003;DHT22;7597;53.590;10.020;2022-07-29T15:47:30;28.40;1.00
15003;DHT22;7597;53.590;10.020;2022-07-29T15:49:56;28.70;1.00
15003;DHT22;7597;53.590;10.020;2022-07-29T15:52:23;29.20;1.00
15003;DHT22;7597;53.590;10.020;2022-07-29T15:54:49;29.40;1.00
15003;DHT22;7597;53.590;10.020;2022-07-29T15:57:16;29.70;1.00
15003;DHT22;7597;53.590;10.020;2022-07-29T15:59:43;30.40;1.00
15003;DHT22;7597;53.590;10.020;2022-07-29T16:02:10;30.40;1.00
15003;DHT22;7597;53.590;10.020;2022-07-29T16:04:37;30.60;1.00